createdAt,value
2022-09-09T00:03:03.113Z,11.248788
2022-09-09T00:08:04.666Z,11.021498
2022-09-09T00:13:06.469Z,11.714048
2022-09-09T00:18:08.461Z,10.836586
2022-09-09T00:23:10.312Z,10.709318
2022-09-09T00:28:12.170Z,11.058246
2022-09-09T00:33:14.606Z,10.905438
2022-09-09T00:38:16.454Z,11.143312
2022-09-09T00:43:18.397Z,11.11958
2022-09-09T00:48:20.439Z,10.621496
2022-09-09T00:53:22.259Z,11.245356
2022-09-09T00:58:24.103Z,11.040592
2022-09-09T01:03:25.880Z,10.564844
2022-09-09T01:08:27.278Z,10.093182
2022-09-09T01:13:28.928Z,9.99582
2022-09-09T01:18:30.818Z,10.223258
2022-09-09T01:23:32.465Z,10.435092
2022-09-09T01:28:34.444Z,10.075866
2022-09-09T01:33:36.671Z,9.608056
2022-09-09T01:38:38.104Z,10.315056
2022-09-09T01:43:39.845Z,10.386988
2022-09-09T01:48:42.065Z,10.202076
2022-09-09T01:53:43.925Z,10.246204
2022-09-09T01:58:45.362Z,10.44949
2022-09-09T02:03:47.176Z,10.186186
2022-09-09T02:08:48.704Z,9.684412
2022-09-09T02:13:50.335Z,10.113372
2022-09-09T02:18:51.735Z,9.335322
2022-09-09T02:23:53.430Z,10.124242
2022-09-09T02:28:54.965Z,10.119546
2022-09-09T02:33:57.007Z,10.224698
2022-09-09T02:38:58.624Z,9.199072
2022-09-09T02:44:00.091Z,9.902258
2022-09-09T02:49:01.790Z,9.220268
2022-09-09T02:54:03.305Z,9.680722
2022-09-09T02:59:04.895Z,9.864142
2022-09-09T03:09:17.422Z,8.99519
2022-09-09T03:14:19.299Z,9.584786
2022-09-09T03:19:21.062Z,9.74587
2022-09-09T03:24:22.487Z,9.155988
2022-09-09T03:29:24.011Z,9.360604
2022-09-09T03:34:25.599Z,9.31558
2022-09-09T03:39:27.453Z,9.221708
2022-09-09T03:44:28.929Z,8.911344
2022-09-09T03:49:30.599Z,9.679788
2022-09-09T03:54:32.484Z,8.88354
2022-09-09T03:59:34.255Z,9.772182
2022-09-09T04:04:36.017Z,9.268968
2022-09-09T04:09:38.170Z,9.42415
2022-09-09T04:14:40.024Z,9.371636
2022-09-09T04:19:41.869Z,9.696002
2022-09-09T04:24:48.174Z,9.969332
2022-09-09T04:29:50.753Z,9.336204
2022-09-09T04:34:52.654Z,9.99582
2022-09-09T04:39:54.784Z,10.238376
2022-09-09T04:44:56.677Z,10.184708
2022-09-09T04:49:58.462Z,9.694996
2022-09-09T04:55:00.267Z,10.05672
2022-09-09T05:00:02.014Z,10.84933
2022-09-09T05:05:04.079Z,10.537922
2022-09-09T05:10:06.865Z,10.893958
2022-09-09T05:15:08.615Z,11.018242
2022-09-09T05:20:14.490Z,11.153462
2022-09-09T05:25:18.864Z,11.996998
2022-09-09T05:30:20.606Z,12.267262
2022-09-09T05:35:22.058Z,13.025026
2022-09-09T05:40:24.335Z,13.203058
2022-09-09T05:45:25.761Z,14.016444
2022-09-09T05:50:31.445Z,14.702276
2022-09-09T05:55:33.233Z,15.124546
2022-09-09T06:00:34.735Z,15.860098
2022-09-09T06:05:36.205Z,15.720182
2022-09-09T06:10:38.288Z,16.178304
2022-09-09T06:15:39.961Z,16.833618
2022-09-09T06:20:41.726Z,16.70696
2022-09-09T06:25:43.524Z,16.414698
2022-09-09T06:30:45.320Z,17.587448
2022-09-09T06:35:47.253Z,17.556034
2022-09-09T06:40:49.207Z,18.530098
2022-09-09T06:45:51.162Z,18.46993
2022-09-09T06:50:52.983Z,19.36791
2022-09-09T06:55:54.801Z,19.314772
2022-09-09T07:00:56.632Z,20.085062
2022-09-09T07:05:58.427Z,20.323222
2022-09-09T07:11:00.603Z,20.811374
2022-09-09T07:16:02.323Z,20.468864
2022-09-09T07:21:03.999Z,21.759182
2022-09-09T07:26:05.785Z,21.414162
2022-09-09T07:31:07.560Z,22.12301
2022-09-09T07:36:09.669Z,21.261694
2022-09-09T07:41:11.536Z,23.035972
2022-09-09T07:46:13.485Z,23.470484
2022-09-09T07:51:15.325Z,24.319656
2022-09-09T07:56:17.182Z,24.060612
2022-09-09T08:01:19.241Z,24.45831
2022-09-09T08:06:21.068Z,24.620006
2022-09-09T08:11:22.732Z,24.758606
2022-09-09T08:16:24.210Z,25.039076
2022-09-09T08:21:25.896Z,26.329952
2022-09-09T08:26:27.509Z,26.347376
2022-09-09T08:31:28.956Z,26.4127
2022-09-09T08:36:30.482Z,27.249144
2022-09-09T08:41:32.135Z,27.500752
2022-09-09T08:46:34.034Z,27.936582
2022-09-09T08:51:35.739Z,28.270082
2022-09-09T08:56:37.313Z,27.702398
2022-09-09T09:01:38.819Z,28.549928
2022-09-09T09:06:40.295Z,27.838392
2022-09-09T09:11:42.209Z,27.550798
2022-09-09T09:16:43.752Z,28.952024
2022-09-09T09:21:45.278Z,28.514172
2022-09-09T09:26:46.954Z,29.387256
2022-09-09T09:31:48.438Z,28.542168
2022-09-09T09:36:50.392Z,28.067448
2022-09-09T09:41:52.220Z,29.031922
2022-09-09T09:46:53.714Z,29.446854
2022-09-09T09:51:55.317Z,28.770612
2022-09-09T09:56:57.086Z,29.652542
2022-09-09T10:01:58.577Z,28.98204
2022-09-09T10:07:00.373Z,29.229672
2022-09-09T10:12:02.077Z,29.639542
2022-09-09T10:17:04.013Z,29.322366
2022-09-09T10:22:05.915Z,27.79292
2022-09-09T10:27:07.761Z,28.189954
2022-09-09T10:32:09.531Z,29.26011
2022-09-09T10:37:11.313Z,29.812568
2022-09-09T10:42:13.779Z,29.873674
2022-09-09T10:47:15.528Z,28.6788
2022-09-09T10:52:16.986Z,29.713456
2022-09-09T10:57:18.662Z,27.95889
2022-09-09T11:02:20.125Z,29.80261
2022-09-09T11:07:21.696Z,29.612824
2022-09-09T11:12:23.373Z,29.43338
2022-09-09T11:17:24.850Z,29.708164
2022-09-09T11:22:26.540Z,29.725588
2022-09-09T11:27:28.378Z,29.927992
2022-09-09T11:32:29.810Z,29.869928
2022-09-09T11:37:31.623Z,29.412862
2022-09-09T11:42:33.629Z,28.885166
2022-09-09T11:47:35.503Z,30.079388
2022-09-09T11:52:37.436Z,28.634236
2022-09-09T11:57:39.541Z,29.88826
2022-09-09T12:02:41.477Z,28.519912
2022-09-09T12:07:43.380Z,29.543958
2022-09-09T12:12:45.484Z,29.366508
2022-09-09T12:17:47.564Z,30.123978
2022-09-09T12:22:49.480Z,28.809692
2022-09-09T12:27:51.342Z,28.225506
2022-09-09T12:32:53.393Z,28.82755
2022-09-09T12:37:55.281Z,29.229672
2022-09-09T12:42:57.720Z,29.22328
2022-09-09T12:47:59.484Z,29.422334
2022-09-09T12:53:01.280Z,29.245102
2022-09-09T12:58:03.066Z,30.30649
2022-09-09T13:03:04.828Z,29.234734
2022-09-09T13:08:06.761Z,29.234952
2022-09-09T13:13:09.041Z,29.524066
2022-09-09T13:18:10.921Z,29.375342
2022-09-09T13:23:12.774Z,29.16523
2022-09-09T13:28:14.690Z,29.232536
2022-09-09T13:33:16.538Z,28.95733
2022-09-09T13:38:18.497Z,28.509762
2022-09-09T13:43:20.878Z,28.049142
2022-09-09T13:48:22.662Z,28.966176
2022-09-09T13:53:24.309Z,28.651008
2022-09-09T13:58:25.860Z,28.803952
2022-09-09T14:03:27.412Z,28.079836
2022-09-09T14:08:29.197Z,27.582374
2022-09-09T14:13:31.017Z,27.584612
2022-09-09T14:18:32.702Z,27.467616
2022-09-09T14:23:34.248Z,27.278686
2022-09-09T14:28:55.222Z,27.107898
2022-09-09T14:33:57.800Z,27.540648
2022-09-09T14:38:59.618Z,27.632256
2022-09-09T14:44:01.671Z,27.004824
2022-09-09T14:49:03.354Z,26.835556
2022-09-09T14:54:05.149Z,26.737774
2022-09-09T14:59:06.835Z,26.677538
2022-09-09T15:04:08.490Z,26.979422
2022-09-09T15:09:10.467Z,27.108714
2022-09-09T15:14:12.464Z,26.89643
2022-09-09T15:19:14.110Z,26.557
2022-09-09T15:24:15.902Z,26.40829
2022-09-09T15:29:17.793Z,26.316438
2022-09-09T15:34:19.648Z,25.913882
2022-09-09T15:39:21.401Z,25.6645
2022-09-09T15:44:23.435Z,25.790778
2022-09-09T15:49:25.150Z,25.009548
2022-09-09T15:54:26.600Z,24.469044
2022-09-09T15:59:28.345Z,24.197394
2022-09-09T16:04:29.919Z,23.741008
2022-09-09T16:09:31.468Z,24.10162
2022-09-09T16:14:33.162Z,23.564454
2022-09-09T16:19:34.709Z,23.124826
2022-09-09T16:24:36.215Z,23.023312
2022-09-09T16:29:37.800Z,22.955342
2022-09-09T16:34:39.247Z,22.501154
2022-09-09T16:39:40.829Z,22.401214
2022-09-09T16:44:42.535Z,22.173272
2022-09-09T16:49:44.143Z,22.22447
2022-09-09T16:54:45.596Z,22.109956
2022-09-09T16:59:47.154Z,21.867644
2022-09-09T17:04:48.604Z,21.378162
2022-09-09T17:09:50.331Z,21.04933
2022-09-09T17:14:52.528Z,21.198324
2022-09-09T17:19:53.954Z,21.087542
2022-09-09T17:24:55.797Z,20.321322
2022-09-09T17:29:59.159Z,20.517986
2022-09-09T17:35:00.628Z,20.349574
2022-09-09T17:40:02.474Z,20.365708
2022-09-09T17:45:05.358Z,20.58772
2022-09-09T17:50:07.061Z,19.636452
2022-09-09T17:55:09.274Z,19.465136
2022-09-09T18:00:11.815Z,19.39893
2022-09-09T18:05:13.507Z,18.934864
2022-09-09T18:10:15.076Z,18.975478
2022-09-09T18:15:28.248Z,18.904482
2022-09-09T18:20:41.712Z,18.161426
2022-09-09T18:25:43.371Z,18.28058
2022-09-09T18:30:45.371Z,17.93765
2022-09-09T18:35:47.155Z,18.119496
2022-09-09T18:40:48.801Z,18.117284
2022-09-09T18:45:50.920Z,18.32251
2022-09-09T18:50:52.726Z,18.040928
2022-09-09T18:55:54.239Z,17.478632
2022-09-09T19:00:56.093Z,17.955386
2022-09-09T19:05:57.917Z,17.260692
2022-09-09T19:10:59.648Z,17.710862
2022-09-09T19:16:01.771Z,16.996492
2022-09-09T19:21:03.687Z,17.410568
2022-09-09T19:26:05.576Z,15.743846
2022-09-09T19:31:07.493Z,16.307444
2022-09-09T19:36:09.332Z,16.332168
2022-09-09T19:41:11.010Z,16.382918
2022-09-09T19:46:13.185Z,16.023664
2022-09-09T19:51:14.981Z,16.419814
2022-09-09T19:56:16.745Z,16.118366
2022-09-09T20:01:18.315Z,16.03779
2022-09-09T20:06:20.129Z,15.822496
2022-09-09T20:11:21.993Z,15.5696
2022-09-09T20:16:24.373Z,15.31688
2022-09-09T20:21:26.211Z,15.178132
2022-09-09T20:26:27.637Z,15.199666
2022-09-09T20:31:29.424Z,15.02234
2022-09-09T20:36:30.880Z,15.525472
2022-09-09T20:41:32.447Z,15.789834
2022-09-09T20:46:36.191Z,15.637122
2022-09-09T20:51:37.680Z,15.354672
2022-09-09T20:56:39.154Z,14.847998
2022-09-09T21:01:41.260Z,15.115902
2022-09-09T21:06:42.986Z,14.650452
2022-09-09T21:11:44.561Z,14.834496
2022-09-09T21:16:46.318Z,15.000534
2022-09-09T21:21:48.033Z,13.646768
2022-09-09T21:26:49.527Z,14.201084
2022-09-09T21:31:51.077Z,14.772186
2022-09-09T21:36:53.299Z,14.343822
2022-09-09T21:41:56.167Z,14.762918
2022-09-09T21:46:58.691Z,13.47818
2022-09-09T21:52:00.141Z,13.91246
2022-09-09T21:57:01.659Z,13.571308
2022-09-09T22:02:03.854Z,13.423902
2022-09-09T22:07:05.537Z,13.369176
2022-09-09T22:12:07.089Z,13.191754
2022-09-09T22:17:09.049Z,13.841234
2022-09-09T22:22:10.800Z,13.75755
2022-09-09T22:27:12.242Z,13.419478
2022-09-09T22:32:13.698Z,13.305182
2022-09-09T22:37:15.145Z,13.333868
2022-09-09T22:42:16.658Z,13.655602
2022-09-09T22:47:18.899Z,14.237722
2022-09-09T22:52:20.867Z,14.137986
2022-09-09T22:57:22.329Z,13.636184
2022-09-09T23:02:23.785Z,13.645886
2022-09-09T23:07:25.386Z,13.656484
2022-09-09T23:12:27.109Z,13.249126
2022-09-09T23:17:29.233Z,13.175688
2022-09-09T23:22:30.884Z,13.355756
2022-09-09T23:27:32.577Z,13.019014
2022-09-09T23:32:34.646Z,12.702748
2022-09-09T23:37:36.358Z,12.62243
2022-09-09T23:42:38.102Z,12.570798
2022-09-09T23:47:40.176Z,12.618902
2022-09-09T23:52:42.155Z,12.81672
2022-09-09T23:57:43.692Z,12.597992
